sensor_id;sensor_type;location;lat;lon;timestamp;pressure;altitude;pressure_sealevel;temperature;humidity
70407;BME280;57821;52.202;0.154;2023-03-15T00:00:04;101379.75;;;2.28;100.00
70407;BME280;57821;52.202;0.154;2023-03-15T00:02:30;101386.53;;;2.28;100.00
70407;BME280;57821;52.202;0.154;2023-03-15T00:04:57;101382.19;;;2.25;100.00
70407;BME280;57821;52.202;0.154;2023-03-15T00:07:23;101381.19;;;2.22;100.00
70407;BME280;57821;52.202;0.154;2023-03-15T00:09:51;101389.72;;;2.22;100.00
70407;BME280;57821;52.202;0.154;2023-03-15T00:12:18;101397.38;;;2.21;100.00
70407;BME280;57821;52.202;0.154;2023-03-15T00:14:44;101408.25;;;2.15;100.00
70407;BME280;57821;52.202;0.154;2023-03-15T00:17:11;101412.41;;;2.13;100.00
70407;BME280;57821;52.202;0.154;2023-03-15T00:19:38;101414.81;;;2.10;100.00
70407;BME280;57821;52.202;0.154;2023-03-15T00:22:04;101417.28;;;2.07;100.00
70407;BME280;57821;52.202;0.154;2023-03-15T00:24:31;101423.00;;;2.01;100.00
70407;BME280;57821;52.202;0.154;2023-03-15T00:26:57;101434.13;;;2.02;100.00
70407;BME280;57821;52.202;0.154;2023-03-15T00:29:24;101430.53;;;1.98;100.00
70407;BME280;57821;52.202;0.154;2023-03-15T00:31:50;101420.13;;;1.94;100.00
70407;BME280;57821;52.202;0.154;2023-03-15T00:34:20;101434.75;;;1.96;100.00
70407;BME280;57821;52.202;0.154;2023-03-15T00:36:46;101435.47;;;1.94;100.00
70407;BME280;57821;52.202;0.154;2023-03-15T00:39:13;101436.28;;;1.93;100.00
70407;BME280;57821;52.202;0.154;2023-03-15T00:41:39;101432.81;;;1.91;100.00
70407;BME280;57821;52.202;0.154;2023-03-15T00:44:05;101442.22;;;1.92;100.00
70407;BME280;57821;52.202;0.154;2023-03-15T00:46:32;101447.28;;;1.90;100.00
70407;BME280;57821;52.202;0.154;2023-03-15T00:48:58;101447.19;;;1.89;100.00
70407;BME280;57821;52.202;0.154;2023-03-15T00:51:25;101453.91;;;1.87;100.00
70407;BME280;57821;52.202;0.154;2023-03-15T00:53:52;101456.38;;;1.84;100.00
70407;BME280;57821;52.202;0.154;2023-03-15T00:56:21;101462.34;;;1.84;100.00
70407;BME280;57821;52.202;0.154;2023-03-15T00:58:49;101467.41;;;1.83;100.00
70407;BME280;57821;52.202;0.154;2023-03-15T01:01:19;101471.50;;;1.79;100.00
70407;BME280;57821;52.202;0.154;2023-03-15T01:03:47;101463.78;;;1.78;100.00
70407;BME280;57821;52.202;0.154;2023-03-15T01:06:16;101469.69;;;1.77;100.00
70407;BME280;57821;52.202;0.154;2023-03-15T01:08:44;101472.13;;;1.74;100.00
70407;BME280;57821;52.202;0.154;2023-03-15T01:11:14;101476.97;;;1.68;100.00
70407;BME280;57821;52.202;0.154;2023-03-15T01:13:42;101488.19;;;1.71;100.00
70407;BME280;57821;52.202;0.154;2023-03-15T01:16:10;101491.56;;;1.70;100.00
70407;BME280;57821;52.202;0.154;2023-03-15T01:18:37;101487.19;;;1.68;100.00
70407;BME280;57821;52.202;0.154;2023-03-15T01:21:11;101490.56;;;1.67;100.00
70407;BME280;57821;52.202;0.154;2023-03-15T01:23:38;101489.59;;;1.64;100.00
70407;BME280;57821;52.202;0.154;2023-03-15T01:26:07;101486.78;;;1.58;100.00
70407;BME280;57821;52.202;0.154;2023-03-15T01:28:35;101498.91;;;1.62;100.00
70407;BME280;57821;52.202;0.154;2023-03-15T01:31:02;101501.41;;;1.61;100.00
70407;BME280;57821;52.202;0.154;2023-03-15T01:33:29;101502.13;;;1.58;100.00
70407;BME280;57821;52.202;0.154;2023-03-15T01:38:25;101515.69;;;1.57;100.00
70407;BME280;57821;52.202;0.154;2023-03-15T01:40:52;101507.84;;;1.53;100.00
70407;BME280;57821;52.202;0.154;2023-03-15T01:43:21;101512.06;;;1.52;100.00
70407;BME280;57821;52.202;0.154;2023-03-15T01:46:24;101512.06;;;1.52;100.00
70407;BME280;57821;52.202;0.154;2023-03-15T01:49:06;101505.09;;;1.48;100.00
70407;BME280;57821;52.202;0.154;2023-03-15T01:51:46;101516.19;;;1.49;100.00
70407;BME280;57821;52.202;0.154;2023-03-15T01:54:19;101514.44;;;1.48;100.00
70407;BME280;57821;52.202;0.154;2023-03-15T01:56:52;101525.44;;;1.47;100.00
70407;BME280;57821;52.202;0.154;2023-03-15T01:59:51;101530.44;;;1.44;100.00
70407;BME280;57821;52.202;0.154;2023-03-15T02:02:18;101542.41;;;1.45;100.00
70407;BME280;57821;52.202;0.154;2023-03-15T02:04:57;101538.69;;;1.38;100.00
70407;BME280;57821;52.202;0.154;2023-03-15T02:07:29;101545.50;;;1.38;100.00
70407;BME280;57821;52.202;0.154;2023-03-15T02:12:30;101541.78;;;1.31;100.00
70407;BME280;57821;52.202;0.154;2023-03-15T02:14:59;101545.13;;;1.30;100.00
70407;BME280;57821;52.202;0.154;2023-03-15T02:17:32;101548.47;;;1.29;100.00
70407;BME280;57821;52.202;0.154;2023-03-15T02:25:18;101553.09;;;1.18;100.00
70407;BME280;57821;52.202;0.154;2023-03-15T02:27:47;101571.94;;;1.20;100.00
70407;BME280;57821;52.202;0.154;2023-03-15T02:30:13;101562.53;;;1.19;100.00
70407;BME280;57821;52.202;0.154;2023-03-15T02:32:40;101553.84;;;1.16;100.00
70407;BME280;57821;52.202;0.154;2023-03-15T02:35:07;101561.50;;;1.16;100.00
70407;BME280;57821;52.202;0.154;2023-03-15T02:37:34;101562.31;;;1.15;100.00
70407;BME280;57821;52.202;0.154;2023-03-15T02:40:00;101564.06;;;1.16;100.00
70407;BME280;57821;52.202;0.154;2023-03-15T02:42:27;101571.72;;;1.16;100.00
70407;BME280;57821;52.202;0.154;2023-03-15T02:44:56;101569.19;;;1.16;100.00
70407;BME280;57821;52.202;0.154;2023-03-15T02:47:29;101562.94;;;1.11;100.00
70407;BME280;57821;52.202;0.154;2023-03-15T02:49:58;101568.06;;;1.11;100.00
70407;BME280;57821;52.202;0.154;2023-03-15T02:52:24;101571.44;;;1.10;100.00
70407;BME280;57821;52.202;0.154;2023-03-15T02:54:51;101571.28;;;1.07;100.00
70407;BME280;57821;52.202;0.154;2023-03-15T02:57:18;101579.91;;;1.09;100.00
70407;BME280;57821;52.202;0.154;2023-03-15T02:59:46;101581.50;;;1.07;100.00
70407;BME280;57821;52.202;0.154;2023-03-15T03:02:13;101578.00;;;1.05;100.00
70407;BME280;57821;52.202;0.154;2023-03-15T03:04:41;101578.72;;;1.02;100.00
70407;BME280;57821;52.202;0.154;2023-03-15T03:07:08;101582.84;;;0.99;100.00
70407;BME280;57821;52.202;0.154;2023-03-15T03:09:45;101584.56;;;1.00;100.00
70407;BME280;57821;52.202;0.154;2023-03-15T03:12:12;101577.72;;;0.99;100.00
70407;BME280;57821;52.202;0.154;2023-03-15T03:14:41;101586.81;;;0.94;100.00
70407;BME280;57821;52.202;0.154;2023-03-15T03:17:12;101585.88;;;0.92;100.00
70407;BME280;57821;52.202;0.154;2023-03-15T03:19:40;101581.38;;;0.86;100.00
70407;BME280;57821;52.202;0.154;2023-03-15T03:22:08;101571.72;;;0.80;100.00
70407;BME280;57821;52.202;0.154;2023-03-15T03:24:35;101569.97;;;0.79;100.00
70407;BME280;57821;52.202;0.154;2023-03-15T03:27:02;101567.25;;;0.76;100.00
70407;BME280;57821;52.202;0.154;2023-03-15T03:29:32;101577.41;;;0.75;100.00
70407;BME280;57821;52.202;0.154;2023-03-15T03:32:00;101584.03;;;0.71;100.00
70407;BME280;57821;52.202;0.154;2023-03-15T03:34:27;101588.13;;;0.68;100.00
70407;BME280;57821;52.202;0.154;2023-03-15T03:36:54;101589.63;;;0.64;100.00
70407;BME280;57821;52.202;0.154;2023-03-15T03:39:36;101601.47;;;0.62;100.00
70407;BME280;57821;52.202;0.154;2023-03-15T03:42:03;101602.16;;;0.60;100.00
70407;BME280;57821;52.202;0.154;2023-03-15T03:44:30;101604.50;;;0.55;100.00
70407;BME280;57821;52.202;0.154;2023-03-15T03:46:56;101618.06;;;0.54;100.00
70407;BME280;57821;52.202;0.154;2023-03-15T03:49:23;101622.22;;;0.52;100.00
70407;BME280;57821;52.202;0.154;2023-03-15T03:51:50;101623.91;;;0.52;100.00
70407;BME280;57821;52.202;0.154;2023-03-15T03:54:16;101622.13;;;0.51;100.00
70407;BME280;57821;52.202;0.154;2023-03-15T03:56:43;101627.94;;;0.48;100.00
70407;BME280;57821;52.202;0.154;2023-03-15T03:59:09;101632.13;;;0.46;100.00
70407;BME280;57821;52.202;0.154;2023-03-15T04:01:46;101638.81;;;0.44;100.00
70407;BME280;57821;52.202;0.154;2023-03-15T04:04:12;101645.59;;;0.44;100.00
70407;BME280;57821;52.202;0.154;2023-03-15T04:06:40;101640.41;;;0.42;100.00
70407;BME280;57821;52.202;0.154;2023-03-15T04:09:07;101643.69;;;0.39;100.00
70407;BME280;57821;52.202;0.154;2023-03-15T04:11:42;101641.03;;;0.38;100.00
70407;BME280;57821;52.202;0.154;2023-03-15T04:14:10;101644.38;;;0.37;100.00
70407;BME280;57821;52.202;0.154;2023-03-15T04:16:38;101641.75;;;0.35;100.00
70407;BME280;57821;52.202;0.154;2023-03-15T04:19:07;101640.81;;;0.33;100.00
70407;BME280;57821;52.202;0.154;2023-03-15T04:21:35;101637.06;;;0.27;100.00
70407;BME280;57821;52.202;0.154;2023-03-15T04:24:20;101642.16;;;0.27;100.00
70407;BME280;57821;52.202;0.154;2023-03-15T04:27:04;101642.00;;;0.24;100.00
70407;BME280;57821;52.202;0.154;2023-03-15T04:29:51;101638.34;;;0.19;100.00
70407;BME280;57821;52.202;0.154;2023-03-15T04:32:42;101641.69;;;0.18;100.00
70407;BME280;57821;52.202;0.154;2023-03-15T04:35:16;101645.66;;;0.13;100.00
70407;BME280;57821;52.202;0.154;2023-03-15T04:37:59;101649.84;;;0.11;100.00
70407;BME280;57821;52.202;0.154;2023-03-15T04:40:46;101648.78;;;0.07;100.00
70407;BME280;57821;52.202;0.154;2023-03-15T04:43:35;101654.53;;;0.03;100.00
70407;BME280;57821;52.202;0.154;2023-03-15T04:46:15;101651.81;;;0.00;100.00
70407;BME280;57821;52.202;0.154;2023-03-15T04:49:00;101645.66;;;-0.04;100.00
70407;BME280;57821;52.202;0.154;2023-03-15T04:51:51;101652.19;;;-0.09;100.00
70407;BME280;57821;52.202;0.154;2023-03-15T04:54:38;101661.50;;;-0.09;100.00
70407;BME280;57821;52.202;0.154;2023-03-15T04:57:31;101655.41;;;-0.13;100.00
70407;BME280;57821;52.202;0.154;2023-03-15T05:00:11;101664.63;;;-0.15;100.00
70407;BME280;57821;52.202;0.154;2023-03-15T05:03:10;101666.03;;;-0.20;100.00
70407;BME280;57821;52.202;0.154;2023-03-15T05:06:05;101671.78;;;-0.24;100.00
70407;BME280;57821;52.202;0.154;2023-03-15T05:08:41;101680.03;;;-0.28;100.00
70407;BME280;57821;52.202;0.154;2023-03-15T05:11:20;101676.53;;;-0.30;100.00
70407;BME280;57821;52.202;0.154;2023-03-15T05:14:08;101675.47;;;-0.33;100.00
70407;BME280;57821;52.202;0.154;2023-03-15T05:16:34;101678.66;;;-0.37;100.00
70407;BME280;57821;52.202;0.154;2023-03-15T05:19:13;101679.47;;;-0.38;100.00
70407;BME280;57821;52.202;0.154;2023-03-15T05:22:18;101684.47;;;-0.40;100.00
70407;BME280;57821;52.202;0.154;2023-03-15T05:25:06;101665.50;;;-0.45;100.00
70407;BME280;57821;52.202;0.154;2023-03-15T05:27:50;101655.16;;;-0.48;100.00
70407;BME280;57821;52.202;0.154;2023-03-15T05:30:33;101659.47;;;-0.47;100.00
70407;BME280;57821;52.202;0.154;2023-03-15T05:33:07;101664.47;;;-0.49;100.00
70407;BME280;57821;52.202;0.154;2023-03-15T05:35:52;101660.06;;;-0.51;100.00
70407;BME280;57821;52.202;0.154;2023-03-15T05:38:34;101663.41;;;-0.52;100.00
70407;BME280;57821;52.202;0.154;2023-03-15T05:41:12;101663.25;;;-0.55;100.00
70407;BME280;57821;52.202;0.154;2023-03-15T05:43:55;101665.69;;;-0.57;100.00
70407;BME280;57821;52.202;0.154;2023-03-15T05:46:35;101680.88;;;-0.58;100.00
70407;BME280;57821;52.202;0.154;2023-03-15T05:49:04;101684.25;;;-0.59;100.00
70407;BME280;57821;52.202;0.154;2023-03-15T05:51:36;101681.53;;;-0.62;100.00
70407;BME280;57821;52.202;0.154;2023-03-15T05:54:16;101685.84;;;-0.61;100.00
70407;BME280;57821;52.202;0.154;2023-03-15T05:57:01;101686.47;;;-0.65;100.00
70407;BME280;57821;52.202;0.154;2023-03-15T05:59:35;101702.69;;;-0.63;100.00
70407;BME280;57821;52.202;0.154;2023-03-15T06:02:36;101691.56;;;-0.65;100.00
70407;BME280;57821;52.202;0.154;2023-03-15T06:05:29;101700.13;;;-0.63;100.00
70407;BME280;57821;52.202;0.154;2023-03-15T06:08:00;101706.06;;;-0.64;100.00
70407;BME280;57821;52.202;0.154;2023-03-15T06:10:26;101710.97;;;-0.67;100.00
70407;BME280;57821;52.202;0.154;2023-03-15T06:12:55;101711.59;;;-0.71;100.00
70407;BME280;57821;52.202;0.154;2023-03-15T06:15:22;101721.06;;;-0.69;100.00
70407;BME280;57821;52.202;0.154;2023-03-15T06:17:51;101724.47;;;-0.68;100.00
70407;BME280;57821;52.202;0.154;2023-03-15T06:20:18;101710.88;;;-0.69;100.00
70407;BME280;57821;52.202;0.154;2023-03-15T06:22:44;101721.06;;;-0.69;100.00
70407;BME280;57821;52.202;0.154;2023-03-15T06:25:24;101719.22;;;-0.71;100.00
70407;BME280;57821;52.202;0.154;2023-03-15T06:27:51;101728.69;;;-0.69;100.00
70407;BME280;57821;52.202;0.154;2023-03-15T06:30:17;101726.00;;;-0.72;100.00
70407;BME280;57821;52.202;0.154;2023-03-15T06:32:44;101723.34;;;-0.73;100.00
70407;BME280;57821;52.202;0.154;2023-03-15T06:35:12;101730.19;;;-0.72;100.00
70407;BME280;57821;52.202;0.154;2023-03-15T06:37:38;101725.09;;;-0.72;100.00
70407;BME280;57821;52.202;0.154;2023-03-15T06:40:05;101733.72;;;-0.70;100.00
70407;BME280;57821;52.202;0.154;2023-03-15T06:42:32;101737.22;;;-0.68;100.00
70407;BME280;57821;52.202;0.154;2023-03-15T06:44:59;101743.28;;;-0.66;100.00
70407;BME280;57821;52.202;0.154;2023-03-15T06:47:26;101742.56;;;-0.64;100.00
70407;BME280;57821;52.202;0.154;2023-03-15T06:49:52;101749.59;;;-0.60;100.00
70407;BME280;57821;52.202;0.154;2023-03-15T06:52:22;101747.06;;;-0.60;100.00
70407;BME280;57821;52.202;0.154;2023-03-15T06:54:48;101751.44;;;-0.57;100.00
70407;BME280;57821;52.202;0.154;2023-03-15T06:57:16;101752.50;;;-0.54;100.00
70407;BME280;57821;52.202;0.154;2023-03-15T06:59:42;101748.44;;;-0.50;100.00
70407;BME280;57821;52.202;0.154;2023-03-15T07:02:16;101746.94;;;-0.47;100.00
70407;BME280;57821;52.202;0.154;2023-03-15T07:04:44;101757.41;;;-0.42;100.00
70407;BME280;57821;52.202;0.154;2023-03-15T07:07:11;101742.28;;;-0.39;100.00
70407;BME280;57821;52.202;0.154;2023-03-15T07:09:39;101749.47;;;-0.32;100.00
70407;BME280;57821;52.202;0.154;2023-03-15T07:12:06;101752.38;;;-0.26;100.00
70407;BME280;57821;52.202;0.154;2023-03-15T07:14:33;101749.97;;;-0.23;100.00
70407;BME280;57821;52.202;0.154;2023-03-15T07:17:00;101752.94;;;-0.15;100.00
70407;BME280;57821;52.202;0.154;2023-03-15T07:19:26;101754.97;;;-0.10;100.00
70407;BME280;57821;52.202;0.154;2023-03-15T07:21:53;101754.50;;;-0.03;100.00
70407;BME280;57821;52.202;0.154;2023-03-15T07:24:19;101756.41;;;0.02;100.00
70407;BME280;57821;52.202;0.154;2023-03-15T07:26:46;101761.16;;;0.10;100.00
70407;BME280;57821;52.202;0.154;2023-03-15T07:29:12;101759.97;;;0.20;100.00
70407;BME280;57821;52.202;0.154;2023-03-15T07:31:39;101764.69;;;0.28;100.00
70407;BME280;57821;52.202;0.154;2023-03-15T07:34:05;101763.50;;;0.38;100.00
70407;BME280;57821;52.202;0.154;2023-03-15T07:36:32;101769.91;;;0.46;100.00
70407;BME280;57821;52.202;0.154;2023-03-15T07:38:58;101767.81;;;0.55;100.00
70407;BME280;57821;52.202;0.154;2023-03-15T07:41:25;101767.50;;;0.65;100.00
70407;BME280;57821;52.202;0.154;2023-03-15T07:44:14;101775.78;;;0.77;100.00
70407;BME280;57821;52.202;0.154;2023-03-15T07:46:41;101771.19;;;0.87;100.00
70407;BME280;57821;52.202;0.154;2023-03-15T07:49:07;101776.03;;;0.98;100.00
70407;BME280;57821;52.202;0.154;2023-03-15T07:51:34;101769.72;;;1.08;100.00
70407;BME280;57821;52.202;0.154;2023-03-15T07:54:00;101769.34;;;1.18;100.00
70407;BME280;57821;52.202;0.154;2023-03-15T07:56:27;101775.09;;;1.30;100.00
70407;BME280;57821;52.202;0.154;2023-03-15T07:58:54;101773.94;;;1.41;100.00
70407;BME280;57821;52.202;0.154;2023-03-15T08:01:20;101771.91;;;1.52;100.00
70407;BME280;57821;52.202;0.154;2023-03-15T08:03:47;101768.25;;;1.64;100.00
70407;BME280;57821;52.202;0.154;2023-03-15T08:06:13;101773.97;;;1.77;100.00
70407;BME280;57821;52.202;0.154;2023-03-15T08:08:40;101769.44;;;1.89;100.00
70407;BME280;57821;52.202;0.154;2023-03-15T08:11:06;101771.78;;;2.02;100.00
70407;BME280;57821;52.202;0.154;2023-03-15T08:13:33;101768.81;;;2.12;100.00
70407;BME280;57821;52.202;0.154;2023-03-15T08:15:59;101767.78;;;2.26;100.00
70407;BME280;57821;52.202;0.154;2023-03-15T08:18:26;101758.91;;;2.37;100.00
70407;BME280;57821;52.202;0.154;2023-03-15T08:20:52;101761.88;;;2.46;100.00
70407;BME280;57821;52.202;0.154;2023-03-15T08:23:19;101758.78;;;2.54;100.00
70407;BME280;57821;52.202;0.154;2023-03-15T08:25:46;101748.94;;;2.63;100.00
70407;BME280;57821;52.202;0.154;2023-03-15T08:28:13;101751.13;;;2.73;100.00
70407;BME280;57821;52.202;0.154;2023-03-15T08:30:39;101756.63;;;2.82;100.00
70407;BME280;57821;52.202;0.154;2023-03-15T08:33:06;101754.59;;;2.94;100.00
70407;BME280;57821;52.202;0.154;2023-03-15T08:35:33;101745.56;;;3.02;100.00
70407;BME280;57821;52.202;0.154;2023-03-15T08:38:00;101746.88;;;3.13;100.00
70407;BME280;57821;52.202;0.154;2023-03-15T08:40:28;101744.75;;;3.24;100.00
70407;BME280;57821;52.202;0.154;2023-03-15T08:42:55;101744.13;;;3.29;100.00
70407;BME280;57821;52.202;0.154;2023-03-15T08:45:23;101741.06;;;3.38;100.00
70407;BME280;57821;52.202;0.154;2023-03-15T08:47:57;101745.81;;;3.50;100.00
70407;BME280;57821;52.202;0.154;2023-03-15T08:50:25;101753.09;;;3.60;100.00
70407;BME280;57821;52.202;0.154;2023-03-15T08:52:53;101748.47;;;3.73;100.00
70407;BME280;57821;52.202;0.154;2023-03-15T08:55:19;101750.56;;;3.82;100.00
70407;BME280;57821;52.202;0.154;2023-03-15T08:57:46;101748.31;;;3.91;100.00
70407;BME280;57821;52.202;0.154;2023-03-15T09:00:13;101750.25;;;3.97;100.00
70407;BME280;57821;52.202;0.154;2023-03-15T09:02:39;101757.56;;;4.08;100.00
70407;BME280;57821;52.202;0.154;2023-03-15T09:05:06;101761.47;;;4.21;100.00
70407;BME280;57821;52.202;0.154;2023-03-15T09:07:33;101760.94;;;4.30;100.00
70407;BME280;57821;52.202;0.154;2023-03-15T09:09:59;101764.88;;;4.44;100.00
70407;BME280;57821;52.202;0.154;2023-03-15T09:12:29;101775.03;;;4.63;100.00
70407;BME280;57821;52.202;0.154;2023-03-15T09:14:55;101771.38;;;4.80;100.00
70407;BME280;57821;52.202;0.154;2023-03-15T09:17:22;101772.78;;;4.96;100.00
70407;BME280;57821;52.202;0.154;2023-03-15T09:19:49;101775.84;;;5.10;100.00
70407;BME280;57821;52.202;0.154;2023-03-15T09:22:15;101781.75;;;5.32;100.00
70407;BME280;57821;52.202;0.154;2023-03-15T09:25:00;101782.66;;;5.58;100.00
70407;BME280;57821;52.202;0.154;2023-03-15T09:27:29;101780.13;;;5.87;100.00
70407;BME280;57821;52.202;0.154;2023-03-15T09:29:56;101793.13;;;6.18;100.00
70407;BME280;57821;52.202;0.154;2023-03-15T09:32:22;101783.88;;;6.53;100.00
70407;BME280;57821;52.202;0.154;2023-03-15T09:34:49;101793.53;;;6.90;100.00
70407;BME280;57821;52.202;0.154;2023-03-15T09:37:17;101797.00;;;7.23;100.00
70407;BME280;57821;52.202;0.154;2023-03-15T09:39:43;101800.00;;;7.38;100.00
70407;BME280;57821;52.202;0.154;2023-03-15T09:42:16;101796.81;;;7.49;100.00
70407;BME280;57821;52.202;0.154;2023-03-15T09:44:52;101801.97;;;7.83;100.00
70407;BME280;57821;52.202;0.154;2023-03-15T09:47:34;101790.63;;;8.12;100.00
70407;BME280;57821;52.202;0.154;2023-03-15T09:50:47;101794.09;;;8.52;100.00
70407;BME280;57821;52.202;0.154;2023-03-15T09:55:43;101793.06;;;8.84;100.00
70407;BME280;57821;52.202;0.154;2023-03-15T09:58:30;101798.59;;;9.02;100.00
70407;BME280;57821;52.202;0.154;2023-03-15T10:01:10;101790.06;;;9.10;100.00
70407;BME280;57821;52.202;0.154;2023-03-15T10:03:42;101789.44;;;9.21;100.00
70407;BME280;57821;52.202;0.154;2023-03-15T10:06:25;101790.44;;;9.29;100.00
70407;BME280;57821;52.202;0.154;2023-03-15T10:08:56;101790.53;;;9.34;100.00
70407;BME280;57821;52.202;0.154;2023-03-15T10:14:20;101790.72;;;9.43;100.00
70407;BME280;57821;52.202;0.154;2023-03-15T10:16:51;101789.19;;;9.57;100.00
70407;BME280;57821;52.202;0.154;2023-03-15T10:21:59;101786.88;;;9.74;100.00
70407;BME280;57821;52.202;0.154;2023-03-15T10:27:13;101792.31;;;9.89;100.00
70407;BME280;57821;52.202;0.154;2023-03-15T10:29:40;101802.72;;;9.92;100.00
70407;BME280;57821;52.202;0.154;2023-03-15T10:32:14;101789.72;;;9.87;100.00
70407;BME280;57821;52.202;0.154;2023-03-15T10:34:43;101788.03;;;9.89;100.00
70407;BME280;57821;52.202;0.154;2023-03-15T10:37:13;101797.66;;;10.00;100.00
70407;BME280;57821;52.202;0.154;2023-03-15T10:39:39;101788.25;;;10.05;99.88
70407;BME280;57821;52.202;0.154;2023-03-15T10:42:06;101788.34;;;10.11;100.00
70407;BME280;57821;52.202;0.154;2023-03-15T10:44:47;101786.63;;;10.13;98.54
70407;BME280;57821;52.202;0.154;2023-03-15T10:47:18;101774.47;;;10.07;96.71
70407;BME280;57821;52.202;0.154;2023-03-15T10:49:55;101776.22;;;10.10;100.00
70407;BME280;57821;52.202;0.154;2023-03-15T10:52:34;101782.41;;;10.16;100.00
70407;BME280;57821;52.202;0.154;2023-03-15T10:55:17;101765.84;;;10.10;100.00
70407;BME280;57821;52.202;0.154;2023-03-15T10:57:57;101766.75;;;10.12;98.69
70407;BME280;57821;52.202;0.154;2023-03-15T11:00:30;101763.97;;;10.00;97.51
70407;BME280;57821;52.202;0.154;2023-03-15T11:03:09;101763.09;;;9.99;90.96
70407;BME280;57821;52.202;0.154;2023-03-15T11:05:52;101762.22;;;9.99;90.48
70407;BME280;57821;52.202;0.154;2023-03-15T11:08:22;101762.25;;;10.02;89.32
70407;BME280;57821;52.202;0.154;2023-03-15T11:10:57;101765.75;;;10.04;91.35
70407;BME280;57821;52.202;0.154;2023-03-15T11:13:26;101761.44;;;10.04;89.35
70407;BME280;57821;52.202;0.154;2023-03-15T11:19:24;101757.00;;;9.94;88.36
70407;BME280;57821;52.202;0.154;2023-03-15T11:21:41;101753.53;;;9.94;90.28
70407;BME280;57821;52.202;0.154;2023-03-15T11:24:18;101754.41;;;9.94;84.81
70407;BME280;57821;52.202;0.154;2023-03-15T11:26:46;101755.25;;;9.93;86.25
70407;BME280;57821;52.202;0.154;2023-03-15T11:31:46;101754.63;;;10.11;87.75
70407;BME280;57821;52.202;0.154;2023-03-15T11:37:05;101745.03;;;10.04;84.64
70407;BME280;57821;52.202;0.154;2023-03-15T11:39:43;101745.00;;;10.01;85.16
70407;BME280;57821;52.202;0.154;2023-03-15T11:42:16;101746.69;;;9.99;81.86
70407;BME280;57821;52.202;0.154;2023-03-15T11:44:46;101748.44;;;10.00;82.73
70407;BME280;57821;52.202;0.154;2023-03-15T11:47:34;101745.75;;;9.94;82.29
70407;BME280;57821;52.202;0.154;2023-03-15T11:50:03;101743.13;;;9.92;80.48
70407;BME280;57821;52.202;0.154;2023-03-15T11:52:29;101744.00;;;9.93;83.56
70407;BME280;57821;52.202;0.154;2023-03-15T11:54:58;101740.59;;;9.97;82.33
70407;BME280;57821;52.202;0.154;2023-03-15T11:59:55;101729.31;;;9.92;81.37
70407;BME280;57821;52.202;0.154;2023-03-15T12:04:50;101732.03;;;10.02;81.50
70407;BME280;57821;52.202;0.154;2023-03-15T12:17:53;101714.63;;;9.89;80.64
70407;BME280;57821;52.202;0.154;2023-03-15T12:20:31;101714.63;;;9.92;76.84
70407;BME280;57821;52.202;0.154;2023-03-15T12:23:16;101714.69;;;9.95;77.20
70407;BME280;57821;52.202;0.154;2023-03-15T12:26:04;101717.28;;;9.97;74.57
70407;BME280;57821;52.202;0.154;2023-03-15T12:31:08;101712.16;;;10.00;75.66
70407;BME280;57821;52.202;0.154;2023-03-15T12:33:54;101714.00;;;10.07;74.28
70407;BME280;57821;52.202;0.154;2023-03-15T12:36:35;101713.97;;;10.05;76.38
70407;BME280;57821;52.202;0.154;2023-03-15T12:39:43;101710.41;;;9.99;76.05
70407;BME280;57821;52.202;0.154;2023-03-15T12:56:26;101678.63;;;10.10;73.02
70407;BME280;57821;52.202;0.154;2023-03-15T12:58:59;101675.13;;;10.08;70.44
70407;BME280;57821;52.202;0.154;2023-03-15T13:01:28;101667.34;;;10.07;71.72
70407;BME280;57821;52.202;0.154;2023-03-15T13:03:56;101666.47;;;10.08;70.53
70407;BME280;57821;52.202;0.154;2023-03-15T13:09:46;101667.34;;;10.07;72.70
70407;BME280;57821;52.202;0.154;2023-03-15T13:17:50;101658.63;;;10.00;72.63
70407;BME280;57821;52.202;0.154;2023-03-15T13:20:41;101656.03;;;10.00;70.07
70407;BME280;57821;52.202;0.154;2023-03-15T13:23:27;101649.06;;;9.96;72.27
70407;BME280;57821;52.202;0.154;2023-03-15T13:29:07;101636.03;;;9.88;67.87
70407;BME280;57821;52.202;0.154;2023-03-15T13:31:36;101637.78;;;9.89;66.54
70407;BME280;57821;52.202;0.154;2023-03-15T13:34:15;101631.66;;;9.86;67.25
70407;BME280;57821;52.202;0.154;2023-03-15T13:36:47;101629.03;;;9.84;65.99
70407;BME280;57821;52.202;0.154;2023-03-15T13:41:44;101624.81;;;9.89;65.38
70407;BME280;57821;52.202;0.154;2023-03-15T13:44:21;101615.25;;;9.85;61.30
70407;BME280;57821;52.202;0.154;2023-03-15T13:46:51;101616.16;;;9.90;62.33
70407;BME280;57821;52.202;0.154;2023-03-15T13:49:19;101612.75;;;9.93;60.98
70407;BME280;57821;52.202;0.154;2023-03-15T13:51:47;101609.31;;;9.94;62.26
70407;BME280;57821;52.202;0.154;2023-03-15T13:54:19;101599.78;;;9.92;62.45
70407;BME280;57821;52.202;0.154;2023-03-15T13:56:57;101611.94;;;9.96;59.55
70407;BME280;57821;52.202;0.154;2023-03-15T13:59:33;101605.03;;;9.95;61.72
70407;BME280;57821;52.202;0.154;2023-03-15T14:02:03;101592.91;;;9.94;61.40
70407;BME280;57821;52.202;0.154;2023-03-15T14:04:34;101595.59;;;10.03;61.54
70407;BME280;57821;52.202;0.154;2023-03-15T14:07:24;101591.34;;;10.08;59.85
70407;BME280;57821;52.202;0.154;2023-03-15T14:12:49;101587.94;;;10.12;56.18
70407;BME280;57821;52.202;0.154;2023-03-15T14:15:24;101586.16;;;10.08;54.77
70407;BME280;57821;52.202;0.154;2023-03-15T14:18:03;101568.78;;;9.98;55.39
70407;BME280;57821;52.202;0.154;2023-03-15T14:20:58;101570.53;;;10.02;54.92
70407;BME280;57821;52.202;0.154;2023-03-15T14:23:28;101567.03;;;9.97;53.91
70407;BME280;57821;52.202;0.154;2023-03-15T14:26:02;101562.69;;;9.94;52.87
70407;BME280;57821;52.202;0.154;2023-03-15T14:28:32;101567.84;;;9.93;54.21
70407;BME280;57821;52.202;0.154;2023-03-15T14:30:59;101566.94;;;9.90;53.26
70407;BME280;57821;52.202;0.154;2023-03-15T14:33:37;101560.00;;;9.83;54.66